Time;durP1;ratioP1;P1;durP2;ratioP2;P2;SDS_P1;SDS_P2;PMS_P1;PMS_P2;Temp;Humidity;BMP_temperature;BMP_pressure;BME280_temperature;BME280_humidity;BME280_pressure;Samples;Min_cycle;Max_cycle;Signal;HPM_P1;HPM_P2
2022/05/05 00:01:43;;;;;;;;;9.67;9.67;;;;;18.23;46.19;101653.72;5057807;28;45435;-71
2022/05/05 00:04:10;;;;;;;;;11.67;10.67;;;;;18.16;46.27;101636.16;5059320;28;45524;-72
2022/05/05 00:06:36;;;;;;;;;12.00;9.33;;;;;18.25;46.56;101655.44;5059405;28;45304;-71
2022/05/05 00:09:02;;;;;;;;;9.33;9.33;;;;;18.23;46.14;101661.66;5059522;28;45250;-71
2022/05/05 00:14:24;;;;;;;;;15.33;11.67;;;;;18.21;46.40;101659.94;5053589;28;45484;-72
2022/05/05 00:16:51;;;;;;;;;10.67;8.67;;;;;18.20;46.22;101658.22;5048073;28;45442;-69
2022/05/05 00:19:16;;;;;;;;;10.67;9.00;;;;;18.19;46.52;101664.38;5043042;28;45434;-69
2022/05/05 00:21:42;;;;;;;;;10.33;9.67;;;;;18.10;46.29;101646.84;5061012;28;45366;-71
2022/05/05 00:24:08;;;;;;;;;10.00;8.67;;;;;18.18;46.49;101663.53;5059746;28;45446;-70
2022/05/05 00:26:35;;;;;;;;;12.33;10.33;;;;;18.18;46.45;101660.00;5059803;28;45429;-72
2022/05/05 00:29:00;;;;;;;;;10.00;10.00;;;;;18.15;46.31;101660.03;5058093;28;45359;-72
2022/05/05 00:31:26;;;;;;;;;11.67;10.33;;;;;18.15;46.42;101660.94;5024172;28;46502;-72
2022/05/05 00:33:52;;;;;;;;;11.33;10.33;;;;;18.14;46.25;101659.16;5039668;28;45158;-70
2022/05/05 00:36:17;;;;;;;;;9.33;8.33;;;;;18.02;46.32;101648.72;5021815;28;45375;-67
2022/05/05 00:38:43;;;;;;;;;13.67;11.67;;;;;18.10;46.21;101665.38;5039104;28;45198;-69
2022/05/05 00:41:08;;;;;;;;;11.00;9.00;;;;;18.08;46.52;101663.66;5039103;28;45523;-68
2022/05/05 00:43:35;;;;;;;;;9.00;9.00;;;;;17.98;46.49;101644.38;5038599;28;45450;-71
2022/05/05 00:46:03;;;;;;;;;10.00;9.67;;;;;18.01;46.59;101660.25;5041624;28;45982;-67
2022/05/05 00:48:29;;;;;;;;;10.00;9.33;;;;;17.99;46.57;101662.03;5043518;28;45489;-69
2022/05/05 00:50:56;;;;;;;;;12.00;11.67;;;;;17.85;46.50;101640.16;5039371;28;46331;-73
2022/05/05 00:53:22;;;;;;;;;10.33;10.33;;;;;17.94;46.67;101661.22;5038713;28;45400;-70
2022/05/05 00:55:54;;;;;;;;;8.33;8.33;;;;;17.92;46.86;101660.38;5038888;28;45423;-68
2022/05/05 00:58:20;;;;;;;;;11.00;9.67;;;;;17.58;46.91;101616.63;5038970;28;45370;-68
2022/05/05 01:00:46;;;;;;;;;9.67;9.00;;;;;17.84;46.65;101662.22;5038365;28;45982;-69
2022/05/05 01:03:12;;;;;;;;;9.00;7.00;;;;;17.83;46.99;101665.78;5038893;28;45351;-67
2022/05/05 01:05:39;;;;;;;;;10.67;8.33;;;;;17.80;47.08;101669.31;5038897;28;45339;-68
2022/05/05 01:08:05;;;;;;;;;10.33;10.00;;;;;17.75;46.92;101672.03;5038661;28;45446;-71
2022/05/05 01:10:32;;;;;;;;;12.00;10.33;;;;;17.58;46.99;101640.47;5038021;28;45352;-72
2022/05/05 01:12:58;;;;;;;;;10.00;8.33;;;;;17.70;46.92;101667.66;5038223;28;45509;-68
2022/05/05 01:15:24;;;;;;;;;9.67;9.00;;;;;17.66;46.66;101661.56;5038647;28;45601;-68
2022/05/05 01:17:50;;;;;;;;;11.00;9.00;;;;;17.68;47.04;101664.19;5038478;28;45576;-68
2022/05/05 01:20:18;;;;;;;;;7.00;7.00;;;;;17.58;46.99;101645.75;5037782;28;45433;-67
2022/05/05 01:22:45;;;;;;;;;11.67;8.00;;;;;17.67;46.64;101663.28;5037820;28;45533;-67
2022/05/05 01:28:12;;;;;;;;;10.00;8.33;;;;;17.60;46.54;101651.03;5038263;28;45435;-69
2022/05/05 01:30:46;;;;;;;;;9.00;8.00;;;;;17.65;46.45;101666.84;5037632;28;46478;-67
2022/05/05 01:33:16;;;;;;;;;10.33;7.00;;;;;17.61;46.58;101666.03;5037861;28;45348;-67
2022/05/05 01:35:43;;;;;;;;;8.00;8.00;;;;;17.54;46.39;101656.41;5037773;28;45261;-69
2022/05/05 01:38:12;;;;;;;;;5.00;4.33;;;;;17.57;46.41;101656.38;5020272;28;45501;-67
2022/05/05 01:40:39;;;;;;;;;5.00;5.00;;;;;17.48;46.54;101643.22;5037536;28;45598;-67
2022/05/05 01:43:08;;;;;;;;;6.00;6.00;;;;;17.54;46.58;101659.94;5037440;28;45346;-67
2022/05/05 01:45:35;;;;;;;;;5.33;5.33;;;;;17.41;46.73;101638.91;5037724;28;45711;-68
2022/05/05 01:48:00;;;;;;;;;4.67;4.00;;;;;17.52;46.32;101659.06;5038090;28;45569;-69
2022/05/05 01:50:26;;;;;;;;;5.00;5.00;;;;;17.20;46.71;101609.13;5037690;28;45941;-68
2022/05/05 01:52:53;;;;;;;;;3.33;3.33;;;;;17.42;46.72;101648.63;5037273;28;45411;-68
2022/05/05 01:55:19;;;;;;;;;6.00;6.00;;;;;17.46;46.77;101658.25;5049763;28;45336;-74
2022/05/05 01:57:45;;;;;;;;;6.33;6.33;;;;;17.36;46.65;101645.13;5056801;28;45422;-72
2022/05/05 02:00:11;;;;;;;;;7.67;6.33;;;;;17.44;46.73;101657.41;5057130;28;45507;-68
2022/05/05 02:02:37;;;;;;;;;7.00;6.00;;;;;17.43;46.63;101668.91;5057338;28;45378;-68
2022/05/05 02:05:03;;;;;;;;;8.00;6.00;;;;;17.41;46.88;101670.69;5057346;28;45454;-70
2022/05/05 02:07:29;;;;;;;;;8.33;7.67;;;;;17.29;46.73;101656.69;5058083;28;45261;-68
2022/05/05 02:09:54;;;;;;;;;7.00;6.00;;;;;17.36;46.78;101670.72;5057133;28;45407;-69
2022/05/05 02:12:23;;;;;;;;;5.00;5.00;;;;;17.26;46.93;101658.50;5057126;28;45430;-67
2022/05/05 02:14:48;;;;;;;;;9.33;7.00;;;;;17.29;46.92;101661.09;5057464;28;45268;-68
2022/05/05 02:17:15;;;;;;;;;6.33;6.00;;;;;17.07;46.48;101634.00;5057921;28;45354;-69
2022/05/05 02:20:00;;;;;;;;;6.00;5.33;;;;;17.28;47.10;101670.81;5057688;28;45626;-75
2022/05/05 02:22:26;;;;;;;;;10.33;7.33;;;;;17.23;46.91;101667.34;5059476;28;45345;-68
2022/05/05 02:24:52;;;;;;;;;8.67;7.67;;;;;17.03;46.94;101638.44;5060133;28;45339;-71
2022/05/05 02:27:24;;;;;;;;;8.33;7.33;;;;;17.22;47.07;101668.22;5062719;28;45493;-75
2022/05/05 02:29:59;;;;;;;;;10.67;5.00;;;;;17.11;47.09;101649.84;5060801;28;46161;-70
2022/05/05 02:32:25;;;;;;;;;8.67;7.00;;;;;17.03;47.17;101641.06;5061987;28;45911;-70
2022/05/05 02:35:06;;;;;;;;;9.33;9.33;;;;;17.17;47.04;101662.13;5058897;28;45422;-73
2022/05/05 02:40:19;;;;;;;;;8.67;7.33;;;;;16.89;47.36;101619.16;5057113;28;45887;-68
2022/05/05 02:42:44;;;;;;;;;8.00;8.00;;;;;17.10;47.63;101657.78;5057841;28;45481;-68
2022/05/05 02:45:10;;;;;;;;;8.67;7.00;;;;;17.02;47.72;101649.06;5057137;28;45403;-67
2022/05/05 02:47:35;;;;;;;;;8.33;7.33;;;;;17.01;47.88;101653.44;5057585;28;45447;-67
2022/05/05 02:50:01;;;;;;;;;9.33;8.33;;;;;16.94;48.05;101647.38;5057248;28;45630;-67
2022/05/05 02:52:27;;;;;;;;;8.67;7.33;;;;;17.02;48.07;101657.00;5038467;28;45621;-72
2022/05/05 02:54:54;;;;;;;;;12.00;11.00;;;;;16.90;48.64;101648.28;5056695;28;45437;-72
2022/05/05 02:57:23;;;;;;;;;10.33;9.33;;;;;16.86;48.66;101643.91;5056732;28;46084;-71
2022/05/05 02:59:55;;;;;;;;;8.33;8.00;;;;;16.85;48.86;101649.22;5056166;28;45497;-73
2022/05/05 03:02:21;;;;;;;;;8.33;8.00;;;;;16.78;49.04;101645.72;5056160;28;45504;-72
2022/05/05 03:04:47;;;;;;;;;10.00;8.33;;;;;16.88;49.04;101668.56;5056213;28;45461;-71
2022/05/05 03:07:13;;;;;;;;;9.00;8.00;;;;;16.84;49.16;101652.75;5056671;28;45570;-73
2022/05/05 03:09:40;;;;;;;;;9.33;8.33;;;;;16.84;49.20;101664.19;5058958;28;46199;-72
2022/05/05 03:12:06;;;;;;;;;13.33;8.33;;;;;16.84;49.30;101663.31;5060037;28;45446;-72
2022/05/05 03:14:32;;;;;;;;;7.67;7.67;;;;;16.71;49.33;101647.53;5060329;28;45551;-72
2022/05/05 03:16:58;;;;;;;;;11.33;7.00;;;;;16.77;49.37;101659.81;5041889;28;45505;-73
2022/05/05 03:19:24;;;;;;;;;8.33;8.33;;;;;16.82;49.48;101665.97;5059775;28;45521;-71
2022/05/05 03:21:49;;;;;;;;;9.67;9.33;;;;;16.71;49.73;101649.31;5058106;28;45520;-73
2022/05/05 03:24:15;;;;;;;;;13.67;11.33;;;;;16.72;50.13;101651.03;5059604;28;45398;-71
2022/05/05 03:26:40;;;;;;;;;13.33;9.33;;;;;16.70;49.80;101645.78;5060449;28;45511;-71
2022/05/05 03:29:06;;;;;;;;;11.00;11.00;;;;;16.76;50.14;101666.00;5059963;28;45408;-74
2022/05/05 03:31:32;;;;;;;;;12.00;9.00;;;;;16.67;49.59;101645.78;5062521;28;45459;-69
2022/05/05 03:33:58;;;;;;;;;8.00;8.00;;;;;16.75;49.84;101666.88;5049529;28;45393;-69
2022/05/05 03:36:24;;;;;;;;;11.00;9.67;;;;;16.73;49.86;101660.75;5061501;28;45615;-73
2022/05/05 03:38:50;;;;;;;;;9.00;9.00;;;;;16.72;49.94;101659.84;5059691;28;45408;-72
2022/05/05 03:41:16;;;;;;;;;7.67;7.67;;;;;16.57;49.81;101638.84;5059896;28;45480;-73
2022/05/05 03:43:41;;;;;;;;;8.67;8.67;;;;;16.73;49.94;101669.56;5041717;28;45501;-72
2022/05/05 03:46:07;;;;;;;;;8.00;8.00;;;;;16.61;49.92;101644.97;5059487;28;45328;-72
2022/05/05 03:48:33;;;;;;;;;9.00;9.00;;;;;16.72;50.22;101667.78;5059441;28;45494;-72
2022/05/05 03:50:59;;;;;;;;;11.33;8.33;;;;;16.72;50.00;101674.84;5059365;28;45645;-74
2022/05/05 03:53:24;;;;;;;;;7.33;7.00;;;;;16.68;50.17;101667.81;5059442;28;45607;-73
2022/05/05 03:55:50;;;;;;;;;12.67;9.00;;;;;16.66;50.20;101674.94;5059509;28;45351;-74
2022/05/05 03:58:15;;;;;;;;;10.33;9.33;;;;;16.66;50.33;101672.28;5059035;28;46293;-71
2022/05/05 04:00:41;;;;;;;;;8.67;8.67;;;;;16.67;50.17;101685.47;5059014;28;45557;-72
2022/05/05 04:03:31;;;;;;;;;7.67;7.00;;;;;16.44;50.44;101643.34;5059590;28;45446;-71
2022/05/05 04:06:06;;;;;;;;;8.67;8.33;;;;;16.62;50.57;101675.84;5059421;28;45698;-71
2022/05/05 04:08:33;;;;;;;;;7.67;6.67;;;;;16.62;50.58;101686.41;5058900;28;45390;-71
2022/05/05 04:11:00;;;;;;;;;11.67;7.67;;;;;16.58;50.63;101676.75;5059087;28;45457;-72
2022/05/05 04:13:26;;;;;;;;;8.00;6.67;;;;;16.59;50.21;101678.50;5040867;28;45275;-69
2022/05/05 04:15:52;;;;;;;;;8.00;8.00;;;;;16.56;50.70;101670.56;5059207;28;45388;-70
2022/05/05 04:18:18;;;;;;;;;7.33;7.33;;;;;16.53;51.06;101676.78;5058749;28;45568;-66
2022/05/05 04:20:44;;;;;;;;;8.67;8.67;;;;;16.51;50.98;101682.09;5058206;28;45553;-73
2022/05/05 04:23:10;;;;;;;;;7.67;7.33;;;;;16.50;51.22;101685.59;5059187;28;45349;-71
2022/05/05 04:25:40;;;;;;;;;9.67;8.00;;;;;16.49;50.93;101688.25;5059222;28;45489;-71
2022/05/05 04:28:07;;;;;;;;;10.67;9.00;;;;;16.46;51.21;101683.00;5059034;28;46130;-71
2022/05/05 04:30:33;;;;;;;;;7.67;7.00;;;;;16.44;50.87;101677.72;5058974;28;45369;-72
2022/05/05 04:32:58;;;;;;;;;10.67;8.33;;;;;16.34;50.71;101670.75;5060283;28;45304;-69
2022/05/05 04:35:24;;;;;;;;;9.67;8.00;;;;;16.46;51.07;101694.44;5059091;28;45353;-70
2022/05/05 04:37:50;;;;;;;;;12.33;8.33;;;;;16.46;50.94;101690.94;5058682;28;45430;-71
2022/05/05 04:40:15;;;;;;;;;8.00;6.33;;;;;16.47;51.02;101695.34;5058491;28;45331;-71
2022/05/05 04:42:41;;;;;;;;;8.33;5.67;;;;;16.46;50.88;101699.72;5058484;28;45451;-71
2022/05/05 04:45:13;;;;;;;;;10.67;8.00;;;;;16.40;50.84;101685.69;5059756;28;45394;-70
2022/05/05 04:47:39;;;;;;;;;9.00;8.67;;;;;16.46;50.79;101694.44;5058696;28;46690;-70
2022/05/05 04:50:06;;;;;;;;;15.33;9.33;;;;;16.48;51.04;101703.25;5060224;28;45279;-73
2022/05/05 04:52:32;;;;;;;;;8.67;8.67;;;;;16.47;50.76;101698.88;5061226;28;45401;-71
2022/05/05 04:54:59;;;;;;;;;9.67;8.00;;;;;16.35;51.17;101683.09;5058917;28;45469;-73
2022/05/05 04:57:25;;;;;;;;;14.33;10.33;;;;;16.30;50.84;101672.53;5060208;28;45355;-72
2022/05/05 04:59:50;;;;;;;;;9.67;8.00;;;;;16.44;51.10;101696.22;5059718;28;45351;-73
2022/05/05 05:02:17;;;;;;;;;10.67;8.33;;;;;16.46;51.20;101715.59;5060124;28;45639;-68
2022/05/05 05:04:42;;;;;;;;;16.00;10.00;;;;;16.37;51.53;101699.78;5059604;28;45244;-68
2022/05/05 05:07:08;;;;;;;;;12.25;12.00;;;;;16.41;51.67;101720.03;5060197;28;45410;-67
2022/05/05 05:09:34;;;;;;;;;16.25;13.25;;;;;16.33;51.68;101709.53;5041993;28;45847;-68
2022/05/05 05:12:00;;;;;;;;;12.00;11.50;;;;;16.35;51.90;101717.47;5059278;28;45331;-67
2022/05/05 05:14:26;;;;;;;;;17.75;13.25;;;;;16.22;52.09;101697.25;5061037;28;45385;-68
2022/05/05 05:16:52;;;;;;;;;13.75;13.75;;;;;16.24;52.00;101709.56;5059666;28;46281;-70
2022/05/05 05:19:19;;;;;;;;;14.75;12.00;;;;;16.33;52.24;101725.38;5045166;28;45576;-67
2022/05/05 05:21:45;;;;;;;;;15.50;12.75;;;;;16.10;52.38;101691.16;5061927;28;45292;-68
2022/05/05 05:24:12;;;;;;;;;14.25;13.25;;;;;16.32;52.87;101728.94;5058349;28;45445;-70
2022/05/05 05:26:37;;;;;;;;;17.50;12.50;;;;;16.35;52.57;101728.03;5057865;28;46252;-72
2022/05/05 05:29:03;;;;;;;;;16.25;14.25;;;;;16.37;52.61;101736.81;5057610;28;45539;-69
2022/05/05 05:31:29;;;;;;;;;15.50;14.75;;;;;16.26;52.51;101714.88;5057349;28;45294;-72
2022/05/05 05:33:54;;;;;;;;;15.75;14.50;;;;;16.14;52.75;101701.72;5039681;28;45506;-73
2022/05/05 05:36:20;;;;;;;;;13.75;12.50;;;;;16.37;52.50;101736.81;5058294;28;46369;-73
2022/05/05 05:38:46;;;;;;;;;15.25;13.25;;;;;16.30;53.07;101729.78;5059971;28;45914;-68
2022/05/05 05:41:11;;;;;;;;;13.50;12.50;;;;;16.28;53.17;101731.59;5058428;28;45480;-68
2022/05/05 05:43:37;;;;;;;;;16.75;15.00;;;;;16.40;53.00;101743.88;5040179;28;45506;-69
2022/05/05 05:46:03;;;;;;;;;17.50;13.50;;;;;16.41;52.99;101741.19;5057659;28;46487;-67
2022/05/05 05:48:33;;;;;;;;;18.25;15.50;;;;;16.36;53.39;101735.06;5057419;28;45387;-72
2022/05/05 05:50:59;;;;;;;;;20.50;15.25;;;;;16.39;52.76;101739.44;5055940;28;45509;-72
2022/05/05 05:53:25;;;;;;;;;21.75;16.50;;;;;16.42;53.29;101735.03;5057596;28;45610;-71
2022/05/05 05:55:50;;;;;;;;;15.75;13.75;;;;;16.47;53.21;101745.59;5057239;28;45371;-68
2022/05/05 05:58:16;;;;;;;;;15.75;14.50;;;;;16.51;53.04;101749.94;5057584;28;45373;-70
2022/05/05 06:00:41;;;;;;;;;12.00;11.25;;;;;15.83;53.06;101626.16;5057878;28;45439;-68
2022/05/05 06:05:51;;;;;;;;;19.00;16.50;;;;;16.55;53.04;101751.69;5059022;28;45717;-69
2022/05/05 06:08:17;;;;;;;;;20.25;17.25;;;;;16.53;53.44;101742.88;5039933;28;45500;-68
2022/05/05 06:10:42;;;;;;;;;22.00;17.50;;;;;16.54;53.41;101750.81;5058436;28;45491;-69
2022/05/05 06:13:08;;;;;;;;;19.25;17.25;;;;;16.56;53.15;101750.78;5058702;28;45736;-69
2022/05/05 06:15:34;;;;;;;;;18.75;17.75;;;;;16.57;53.11;101752.56;5051277;28;46320;-68
2022/05/05 06:17:59;;;;;;;;;19.00;18.00;;;;;16.52;53.41;101735.84;5049933;28;45322;-69
2022/05/05 06:20:25;;;;;;;;;18.75;16.50;;;;;16.60;53.58;101751.66;5039805;28;45447;-70
2022/05/05 06:22:51;;;;;;;;;16.50;14.25;;;;;16.63;53.19;101754.28;5054514;28;45282;-69
2022/05/05 06:25:20;;;;;;;;;22.25;17.50;;;;;16.66;53.56;101755.16;5039184;28;45363;-70
2022/05/05 06:27:46;;;;;;;;;26.75;21.00;;;;;16.59;53.69;101740.22;5038444;28;45422;-67
2022/05/05 06:30:13;;;;;;;;;20.00;17.00;;;;;16.50;53.30;101730.56;5057181;28;45564;-69
2022/05/05 06:32:42;;;;;;;;;26.00;20.75;;;;;16.66;53.45;101760.44;5039731;28;45384;-72
2022/05/05 06:35:09;;;;;;;;;23.75;18.50;;;;;16.64;53.31;101753.41;5037622;28;45546;-70
2022/05/05 06:37:37;;;;;;;;;23.25;19.50;;;;;16.54;53.13;101736.72;5041172;28;45610;-72
2022/05/05 06:40:05;;;;;;;;;22.00;20.50;;;;;16.68;53.23;101752.47;5056458;28;45453;-74
2022/05/05 06:42:30;;;;;;;;;18.50;17.75;;;;;16.64;53.19;101756.91;5042881;28;45351;-72
2022/05/05 06:44:59;;;;;;;;;17.50;15.50;;;;;16.77;53.38;101772.69;5055636;28;46035;-73
2022/05/05 06:47:31;;;;;;;;;19.50;17.75;;;;;16.78;53.46;101775.34;5056147;28;45372;-72
2022/05/05 06:49:57;;;;;;;;;16.75;13.75;;;;;16.73;53.37;101756.00;5044109;28;45453;-73
2022/05/05 06:52:23;;;;;;;;;21.25;16.50;;;;;16.83;53.16;101770.06;5057503;28;45525;-73
2022/05/05 06:54:49;;;;;;;;;26.25;21.25;;;;;16.80;53.10;101768.31;5056868;28;46522;-74
2022/05/05 06:57:15;;;;;;;;;18.25;17.50;;;;;16.90;53.07;101785.88;5038606;28;45346;-72
2022/05/05 06:59:41;;;;;;;;;21.00;17.50;;;;;16.91;53.29;101781.44;5056541;28;45553;-73
2022/05/05 07:02:06;;;;;;;;;18.75;17.00;;;;;16.93;53.26;101783.19;5056582;28;45438;-72
2022/05/05 07:07:19;;;;;;;;;16.75;14.75;;;;;16.85;53.01;101766.50;5052233;28;45398;-72
2022/05/05 07:12:31;;;;;;;;;22.00;16.75;;;;;17.00;53.50;101788.44;5042409;28;45296;-73
2022/05/05 07:14:58;;;;;;;;;21.75;17.00;;;;;16.89;53.32;101773.50;5055741;28;45434;-74
2022/05/05 07:17:24;;;;;;;;;16.75;13.25;;;;;16.98;53.42;101787.59;5055895;28;45454;-73
2022/05/05 07:19:51;;;;;;;;;25.25;21.50;;;;;17.02;52.90;101799.91;5055950;28;45520;-72
2022/05/05 07:22:17;;;;;;;;;21.50;14.00;;;;;17.09;53.00;101794.53;5057024;28;45433;-74
2022/05/05 07:24:43;;;;;;;;;23.50;19.75;;;;;16.94;53.14;101776.13;5055909;28;45969;-74
2022/05/05 07:27:10;;;;;;;;;22.50;19.75;;;;;17.00;53.04;101785.81;5055289;28;45471;-74
2022/05/05 07:29:37;;;;;;;;;23.00;18.75;;;;;17.01;53.05;101784.91;5055726;28;45251;-72
2022/05/05 07:32:03;;;;;;;;;25.50;21.00;;;;;17.15;52.93;101807.72;5037634;28;45522;-73
2022/05/05 07:34:29;;;;;;;;;23.50;19.00;;;;;17.14;53.36;101807.75;5055055;28;47667;-72
2022/05/05 07:36:55;;;;;;;;;18.50;16.75;;;;;17.18;52.88;101812.13;5055434;28;45332;-73
2022/05/05 07:39:22;;;;;;;;;20.25;16.00;;;;;17.19;52.93;101810.34;5036989;28;45373;-73
2022/05/05 07:41:48;;;;;;;;;15.75;14.25;;;;;17.21;52.96;101820.03;5055765;28;45277;-73
2022/05/05 07:44:18;;;;;;;;;21.75;19.25;;;;;17.02;52.85;101779.59;5052486;28;46282;-74
2022/05/05 07:46:43;;;;;;;;;19.25;16.25;;;;;17.09;53.06;101802.47;5036704;28;45711;-72
2022/05/05 07:49:09;;;;;;;;;20.50;19.50;;;;;16.95;52.93;101773.47;5055682;28;45563;-75
2022/05/05 07:51:35;;;;;;;;;19.00;15.50;;;;;17.21;53.17;101819.16;5056967;28;45346;-73
2022/05/05 07:56:55;;;;;;;;;17.75;15.75;;;;;17.12;52.64;101791.00;5059093;28;45504;-73
2022/05/05 07:59:47;;;;;;;;;15.00;15.00;;;;;17.37;52.57;101820.78;5059431;28;45339;-71
2022/05/05 08:02:16;;;;;;;;;16.00;13.67;;;;;17.44;52.22;101821.59;5051333;28;45565;-71
2022/05/05 08:04:43;;;;;;;;;18.33;16.33;;;;;17.55;52.28;101827.69;5059518;28;45724;-70
2022/05/05 08:07:10;;;;;;;;;18.50;14.25;;;;;17.65;51.77;101825.81;5059465;28;45544;-73
2022/05/05 08:09:36;;;;;;;;;17.25;15.00;;;;;17.76;51.44;101827.47;5059749;28;45863;-73
2022/05/05 08:12:03;;;;;;;;;21.33;15.33;;;;;17.63;51.47;101793.16;5059506;28;45508;-72
2022/05/05 08:14:29;;;;;;;;;18.00;14.67;;;;;17.89;51.20;101817.66;5040762;28;46411;-72
2022/05/05 08:16:55;;;;;;;;;15.67;13.00;;;;;18.03;50.72;101828.06;5059265;28;45232;-72
2022/05/05 08:19:21;;;;;;;;;16.00;14.33;;;;;18.11;50.63;101828.88;5041594;28;45532;-68
2022/05/05 08:21:47;;;;;;;;;17.00;14.00;;;;;18.11;50.42;101809.47;5059799;28;45437;-70
2022/05/05 08:29:41;;;;;;;;;19.00;16.33;;;;;18.42;49.55;101809.94;5058659;28;45488;-69
2022/05/05 08:32:07;;;;;;;;;22.00;15.00;;;;;18.61;49.55;101834.44;5059010;28;45382;-70
2022/05/05 08:34:33;;;;;;;;;19.33;16.67;;;;;18.73;49.04;101830.72;5058829;28;46238;-72
2022/05/05 08:36:59;;;;;;;;;17.00;17.00;;;;;18.89;48.72;101829.63;5040249;28;45491;-71
2022/05/05 08:39:25;;;;;;;;;22.00;18.33;;;;;18.99;48.63;101817.97;5058566;28;45466;-71
2022/05/05 08:41:54;;;;;;;;;16.67;16.33;;;;;19.19;48.45;101828.25;5059104;28;45315;-69
2022/05/05 08:44:19;;;;;;;;;17.00;14.67;;;;;19.27;47.83;101829.03;5058720;28;45492;-70
2022/05/05 08:46:50;;;;;;;;;25.67;17.33;;;;;19.44;47.89;101830.53;5040483;28;45476;-68
2022/05/05 08:49:20;;;;;;;;;17.00;17.00;;;;;19.56;47.45;101837.41;5039730;28;45838;-72
2022/05/05 08:51:49;;;;;;;;;18.00;16.67;;;;;19.52;46.68;101839.22;5057847;28;45473;-68
2022/05/05 08:54:18;;;;;;;;;23.00;22.33;;;;;19.56;46.12;101840.06;5058471;28;45466;-67
2022/05/05 08:56:48;;;;;;;;;20.00;16.33;;;;;19.51;46.61;101840.13;5058043;28;45330;-72
2022/05/05 08:59:16;;;;;;;;;23.33;15.67;;;;;19.45;46.46;101833.13;5057974;28;45500;-71
2022/05/05 09:01:42;;;;;;;;;17.00;15.67;;;;;19.54;46.25;101844.50;5058624;28;45228;-73
2022/05/05 09:04:08;;;;;;;;;16.67;15.33;;;;;19.55;46.45;101848.91;5061195;28;45610;-74
2022/05/05 09:07:00;;;;;;;;;18.00;15.33;;;;;19.58;46.58;101846.22;5063673;28;45267;-73
2022/05/05 09:09:31;;;;;;;;;22.33;18.67;;;;;19.61;46.73;101839.06;5059737;28;45599;-74
2022/05/05 09:12:13;;;;;;;;;17.33;16.33;;;;;19.58;46.67;101847.09;5060273;28;45257;-72
2022/05/05 09:14:40;;;;;;;;;17.67;14.33;;;;;19.60;46.61;101844.38;5058248;28;46096;-72
2022/05/05 09:17:07;;;;;;;;;14.67;14.00;;;;;19.62;46.23;101842.59;5058384;28;45363;-70
2022/05/05 09:19:38;;;;;;;;;24.33;19.67;;;;;19.56;46.42;101845.38;5058589;28;45418;-70
2022/05/05 09:22:04;;;;;;;;;14.67;14.00;;;;;19.51;46.76;101849.88;5058772;28;45335;-72
2022/05/05 09:24:36;;;;;;;;;13.33;12.67;;;;;19.48;46.60;101851.69;5058184;28;46015;-70
2022/05/05 09:27:20;;;;;;;;;19.33;15.67;;;;;19.44;46.85;101847.31;5058102;28;45445;-69
2022/05/05 09:30:02;;;;;;;;;15.67;15.00;;;;;19.40;46.85;101842.97;5057717;28;45481;-71
2022/05/05 09:32:41;;;;;;;;;19.00;16.67;;;;;19.38;46.83;101844.75;5058305;28;45227;-68
2022/05/05 09:35:10;;;;;;;;;19.33;16.33;;;;;19.45;46.65;101829.59;5057841;28;46769;-68
2022/05/05 09:37:37;;;;;;;;;22.33;18.33;;;;;19.53;46.31;101827.69;5060431;28;45640;-69
2022/05/05 09:40:06;;;;;;;;;16.67;16.00;;;;;19.71;45.89;101847.78;5062594;28;45493;-69
2022/05/05 09:42:40;;;;;;;;;16.00;14.00;;;;;19.81;45.94;101837.84;5063307;28;45364;-68
2022/05/05 09:45:29;;;;;;;;;18.67;17.00;;;;;19.90;45.99;101842.97;5063235;28;45514;-69
2022/05/05 09:48:01;;;;;;;;;14.67;13.33;;;;;19.93;45.13;101826.97;5063651;28;45421;-69
2022/05/05 09:50:32;;;;;;;;;12.67;12.00;;;;;19.95;45.00;101829.59;5061380;28;45483;-69
2022/05/05 09:58:36;;;;;;;;;15.00;12.67;;;;;19.82;44.67;101824.53;5061615;28;45232;-71
2022/05/05 10:01:08;;;;;;;;;8.33;8.33;;;;;19.49;44.80;101776.38;5059063;28;45426;-68
2022/05/05 10:04:00;;;;;;;;;9.33;9.33;;;;;19.85;44.65;101842.19;5042570;28;45406;-69
2022/05/05 10:06:39;;;;;;;;;12.00;9.00;;;;;19.77;44.31;101831.72;5051939;28;46080;-69
2022/05/05 10:09:07;;;;;;;;;10.67;9.00;;;;;19.83;44.09;101846.66;5058435;28;45474;-70
2022/05/05 10:11:34;;;;;;;;;12.67;7.67;;;;;19.85;44.14;101844.84;5052225;28;45561;-66
2022/05/05 10:14:05;;;;;;;;;9.33;8.00;;;;;19.80;43.86;101834.31;5058065;28;45509;-73
2022/05/05 10:16:31;;;;;;;;;7.00;7.00;;;;;19.91;43.47;101842.09;5060308;28;46214;-72
2022/05/05 10:18:58;;;;;;;;;6.67;6.67;;;;;19.97;43.81;101843.75;5057745;28;45332;-71
2022/05/05 10:22:01;;;;;;;;;15.00;10.67;;;;;19.97;44.62;101843.75;5056681;28;45454;-74
2022/05/05 10:24:47;;;;;;;;;13.67;10.00;;;;;19.98;45.16;101838.41;5049883;28;45472;-73
2022/05/05 10:27:13;;;;;;;;;8.33;8.00;;;;;20.01;45.32;101843.66;5056176;28;45453;-73
2022/05/05 10:29:41;;;;;;;;;9.67;9.67;;;;;20.09;46.41;101841.72;5061421;28;45418;-73
2022/05/05 10:32:09;;;;;;;;;9.00;9.00;;;;;20.19;44.33;101838.88;5065522;28;45221;-71
2022/05/05 10:34:42;;;;;;;;;9.00;9.00;;;;;20.20;42.98;101830.88;5039159;28;45248;-73
2022/05/05 10:37:14;;;;;;;;;9.00;9.00;;;;;20.21;43.75;101829.06;5055954;28;46499;-74
2022/05/05 10:40:01;;;;;;;;;9.00;7.67;;;;;20.23;43.04;101836.13;5057818;28;45540;-73
2022/05/05 10:42:29;;;;;;;;;7.00;7.00;;;;;20.22;42.90;101836.16;5060986;28;45392;-76
2022/05/05 10:45:04;;;;;;;;;6.33;6.33;;;;;20.17;43.37;101840.69;5064723;28;45343;-74
2022/05/05 10:47:55;;;;;;;;;9.00;7.00;;;;;20.11;45.49;101833.72;5059651;28;45419;-76
2022/05/05 10:50:34;;;;;;;;;7.33;7.00;;;;;19.95;44.13;101808.34;5055743;28;45409;-75
2022/05/05 10:53:01;;;;;;;;;8.67;8.67;;;;;20.12;46.82;101839.00;5056815;28;45459;-75
2022/05/05 10:55:32;;;;;;;;;9.00;8.00;;;;;20.13;46.64;101840.75;5056987;28;45529;-75
2022/05/05 10:57:58;;;;;;;;;5.67;5.67;;;;;20.13;44.15;101830.09;5057015;28;45521;-64
2022/05/05 11:00:24;;;;;;;;;6.00;4.67;;;;;20.21;43.08;101826.41;5059978;28;45389;-75
2022/05/05 11:03:01;;;;;;;;;6.33;6.33;;;;;20.23;43.47;101838.78;5055268;28;45402;-76
2022/05/05 11:05:29;;;;;;;;;8.00;8.00;;;;;20.10;42.82;101813.34;5055805;28;45453;-78
2022/05/05 11:08:17;;;;;;;;;6.67;6.67;;;;;20.17;43.00;101835.34;5055713;28;45274;-74
2022/05/05 11:11:40;;;;;;;;;8.00;6.00;;;;;20.20;42.66;101835.31;5054465;28;45459;-73
2022/05/05 11:13:38;;;;;;;;;6.33;6.33;;;;;20.22;42.04;101833.50;5055011;28;45432;-73
2022/05/05 11:22:30;;;;;;;;;8.00;8.00;;;;;20.36;41.47;101830.53;5579837;22;46522;-71
2022/05/05 11:25:02;;;;;;;;;7.33;6.67;;;;;20.25;40.99;101789.09;5578848;22;46482;-71
2022/05/05 11:27:28;;;;;;;;;9.00;6.67;;;;;20.54;40.78;101817.69;5069770;28;46081;-69
2022/05/05 11:29:55;;;;;;;;;5.00;5.00;;;;;20.57;39.87;101823.91;5075805;28;46289;-70
2022/05/05 11:32:28;;;;;;;;;5.33;4.00;;;;;20.26;40.08;101766.91;5078495;28;45493;-69
2022/05/05 11:34:54;;;;;;;;;6.00;6.00;;;;;20.38;40.04;101797.66;5079941;28;45309;-69
2022/05/05 11:37:20;;;;;;;;;6.33;5.00;;;;;20.43;39.70;101822.41;5078689;28;45472;-72
2022/05/05 11:39:48;;;;;;;;;5.00;5.00;;;;;20.28;40.20;101812.06;5079538;28;46430;-71
2022/05/05 11:42:14;;;;;;;;;4.67;4.67;;;;;20.20;40.44;101814.03;5079382;28;46029;-73
2022/05/05 11:44:44;;;;;;;;;5.00;5.00;;;;;20.21;40.67;101829.94;5061920;28;46464;-70
2022/05/05 11:47:13;;;;;;;;;5.67;5.67;;;;;20.05;40.45;101807.22;5077728;28;45458;-70
2022/05/05 11:49:51;;;;;;;;;6.00;5.67;;;;;20.11;40.53;101823.06;5079496;28;45968;-67
2022/05/05 11:52:23;;;;;;;;;5.33;5.33;;;;;20.09;40.43;101827.53;5077851;28;45597;-75
2022/05/05 11:54:54;;;;;;;;;5.00;5.00;;;;;20.06;40.56;101830.28;5073873;28;45578;-72
2022/05/05 11:57:39;;;;;;;;;6.33;5.33;;;;;19.95;40.69;101808.34;5065249;28;45424;-71
2022/05/05 12:02:54;;;;;;;;;1.00;0.00;;;;;19.96;40.46;101810.09;5072385;28;45901;-70